createdAt,value
2022-09-17T00:02:40.114Z,99834.56
2022-09-17T00:07:39.052Z,99841.97
2022-09-17T00:12:37.865Z,99844.03
2022-09-17T00:17:36.685Z,99855.59
2022-09-17T00:22:36.873Z,99845.59
2022-09-17T00:27:35.670Z,99856.94
2022-09-17T00:32:34.520Z,99841.38
2022-09-17T00:37:33.322Z,99824.41
2022-09-17T00:42:33.717Z,99825.72
2022-09-17T00:47:36.410Z,99818.69
2022-09-17T00:52:38.844Z,99815.16
2022-09-17T00:57:39.341Z,99821.66
2022-09-17T01:02:39.809Z,99813.50
2022-09-17T01:07:56.209Z,99818.78
2022-09-17T01:13:09.060Z,99823.72
2022-09-17T01:18:23.147Z,99810.53
2022-09-17T01:23:59.939Z,99801.09
2022-09-17T01:29:13.900Z,99800.63
2022-09-17T01:34:24.579Z,99804.91
2022-09-17T01:39:36.183Z,99807.75
2022-09-17T01:44:41.830Z,99808.97
2022-09-17T01:49:42.256Z,99790.28
2022-09-17T01:54:44.962Z,99779.25
2022-09-17T01:59:47.321Z,99776.47
2022-09-17T02:04:53.788Z,99778.81
2022-09-17T02:09:58.090Z,99776.13
2022-09-17T02:15:00.305Z,99776.66
2022-09-17T02:20:02.289Z,99761.38
2022-09-17T02:25:07.913Z,99768.31
2022-09-17T02:30:08.068Z,99769.22
2022-09-17T02:35:09.512Z,99764.59
2022-09-17T02:40:10.734Z,99758.19
2022-09-17T02:45:25.278Z,99745.03
2022-09-17T02:50:38.770Z,99749.03
2022-09-17T02:55:43.261Z,99756.06
2022-09-17T03:00:43.779Z,99729.06
2022-09-17T03:05:47.927Z,99720.38
2022-09-17T03:10:49.086Z,99724.94
2022-09-17T03:15:48.086Z,99715.84
2022-09-17T03:20:52.587Z,99703.63
2022-09-17T03:25:52.215Z,99708.25
2022-09-17T03:30:51.059Z,99708.25
2022-09-17T03:35:51.231Z,99687.53
2022-09-17T03:40:59.170Z,99666.72
2022-09-17T03:45:58.014Z,99651.16
2022-09-17T03:50:58.304Z,99655.88
2022-09-17T03:55:59.569Z,99651.63
2022-09-17T04:00:58.830Z,99660.44
2022-09-17T04:06:01.867Z,99639.69
2022-09-17T04:11:00.674Z,99633.72
2022-09-17T04:15:59.444Z,99627.16
2022-09-17T04:20:58.578Z,99639.28
2022-09-17T04:25:58.875Z,99657.44
2022-09-17T04:30:57.838Z,99654.56
2022-09-17T04:35:56.800Z,99637.53
2022-09-17T04:40:57.438Z,99642.41
2022-09-17T04:45:57.737Z,99644.56
2022-09-17T04:50:56.539Z,99632.19
2022-09-17T04:55:55.333Z,99628.53
2022-09-17T05:00:54.066Z,99641.75
2022-09-17T05:05:54.188Z,99640.44
2022-09-17T05:10:53.358Z,99638.03
2022-09-17T05:15:52.122Z,99628.63
2022-09-17T05:20:50.980Z,99637.81
2022-09-17T05:25:52.977Z,99651.56
2022-09-17T05:30:51.884Z,99640.34
2022-09-17T05:35:50.704Z,99647.25
2022-09-17T05:40:51.018Z,99633.75
2022-09-17T05:45:49.939Z,99642.66
2022-09-17T05:50:48.938Z,99630.59
2022-09-17T05:55:47.647Z,99635.75
2022-09-17T06:00:49.048Z,99646.66
2022-09-17T06:05:55.191Z,99626.22
2022-09-17T06:10:54.080Z,99639.53
2022-09-17T06:15:55.126Z,99630.94
2022-09-17T06:20:55.354Z,99624.53
2022-09-17T06:25:55.815Z,99622.41
2022-09-17T06:30:57.388Z,99608.25
2022-09-17T06:36:00.792Z,99605.94
2022-09-17T06:41:02.816Z,99613.25
2022-09-17T06:46:05.731Z,99628.00
2022-09-17T06:51:05.772Z,99618.56
2022-09-17T06:56:06.670Z,99643.03
2022-09-17T07:01:07.622Z,99628.81
2022-09-17T07:06:10.174Z,99620.34
2022-09-17T07:11:09.330Z,99629.47
2022-09-17T07:16:09.635Z,99623.50
2022-09-17T07:21:09.294Z,99637.84
2022-09-17T07:26:10.194Z,99623.41
2022-09-17T07:31:15.869Z,99627.56
2022-09-17T07:36:18.026Z,99642.13
2022-09-17T07:41:18.873Z,99636.78
2022-09-17T07:46:21.341Z,99610.28
2022-09-17T07:51:22.026Z,99601.16
2022-09-17T07:56:20.938Z,99601.97
2022-09-17T08:01:22.811Z,99611.13
2022-09-17T08:06:24.493Z,99620.66
2022-09-17T08:11:54.589Z,99637.66
2022-09-17T08:16:47.575Z,99628.50
2022-09-17T08:21:46.501Z,99636.75
2022-09-17T08:26:45.315Z,99626.94
2022-09-17T08:31:45.562Z,99605.28
2022-09-17T08:36:44.779Z,99609.66
2022-09-17T08:41:53.912Z,99610.00
2022-09-17T08:46:59.664Z,99629.03
2022-09-17T08:52:28.134Z,99625.53
2022-09-17T08:57:34.955Z,99599.53
2022-09-17T09:02:56.240Z,99603.91
2022-09-17T09:08:02.869Z,99616.03
2022-09-17T09:13:03.210Z,99627.16
2022-09-17T09:18:14.280Z,99621.09
2022-09-17T09:23:19.662Z,99623.50
2022-09-17T09:28:39.239Z,99635.84
2022-09-17T09:33:46.998Z,99638.25
2022-09-17T09:38:57.911Z,99637.19
2022-09-17T09:44:05.048Z,99619.81
2022-09-17T09:49:18.897Z,99625.00
2022-09-17T09:54:31.943Z,99625.53
2022-09-17T09:59:30.979Z,99630.34
2022-09-17T10:04:32.574Z,99618.91
2022-09-17T10:09:32.942Z,99619.06
2022-09-17T10:14:33.270Z,99641.72
2022-09-17T10:19:33.445Z,99620.16
2022-09-17T10:24:34.651Z,99629.09
2022-09-17T10:29:34.556Z,99629.16
2022-09-17T10:34:35.779Z,99633.75
2022-09-17T10:39:36.782Z,99631.50
2022-09-17T10:44:36.344Z,99642.78
2022-09-17T10:49:43.825Z,99649.59
2022-09-17T10:55:13.973Z,99639.66
2022-09-17T11:00:18.412Z,99661.25
2022-09-17T11:05:40.116Z,99649.94
2022-09-17T11:10:47.148Z,99657.28
2022-09-17T11:15:58.142Z,99644.84
2022-09-17T11:21:18.358Z,99650.47
2022-09-17T11:26:29.312Z,99664.09
2022-09-17T11:31:38.969Z,99664.75
2022-09-17T11:36:47.411Z,99691.69
2022-09-17T11:41:50.103Z,99738.31
2022-09-17T11:46:52.776Z,99741.44
2022-09-17T11:51:58.220Z,99747.69
2022-09-17T11:57:06.490Z,99737.94
2022-09-17T12:02:16.319Z,99747.91
2022-09-17T12:07:33.005Z,99764.47
2022-09-17T12:12:48.965Z,99764.72
2022-09-17T12:18:27.375Z,99755.59
2022-09-17T12:23:26.116Z,99727.78
2022-09-17T12:28:32.474Z,99690.38
2022-09-17T12:34:00.030Z,99701.81
2022-09-17T12:39:21.944Z,99686.22
2022-09-17T12:44:45.210Z,99702.16
2022-09-17T12:50:07.774Z,99722.59
2022-09-17T12:55:35.005Z,99712.34
2022-09-17T13:00:45.323Z,99667.84
2022-09-17T13:06:16.272Z,99646.38
2022-09-17T13:11:51.388Z,99636.34
2022-09-17T13:17:09.765Z,99630.38
2022-09-17T13:22:34.177Z,99613.41
2022-09-17T13:27:40.440Z,99607.59
2022-09-17T13:33:04.945Z,99597.84
2022-09-17T13:38:24.615Z,99570.44
2022-09-17T13:43:32.936Z,99551.75
2022-09-17T13:48:42.392Z,99531.38
2022-09-17T13:53:54.674Z,99532.69
2022-09-17T13:59:00.833Z,99527.19
2022-09-17T14:04:06.640Z,99522.84
2022-09-17T14:09:47.538Z,99496.78
2022-09-17T14:14:53.460Z,99461.50
2022-09-17T14:20:48.654Z,99464.13
2022-09-17T14:25:53.835Z,99435.69
2022-09-17T14:30:54.346Z,99422.13
2022-09-17T14:35:57.764Z,99421.16
2022-09-17T14:41:08.092Z,99443.94
2022-09-17T14:46:23.787Z,99467.06
2022-09-17T14:51:29.693Z,99487.00
2022-09-17T14:56:28.791Z,99495.28
2022-09-17T15:01:31.489Z,99508.50
2022-09-17T15:06:30.731Z,99514.63
2022-09-17T15:11:31.065Z,99519.00
2022-09-17T15:16:33.570Z,99534.94
2022-09-17T15:21:37.244Z,99534.88
2022-09-17T15:26:39.731Z,99526.81
2022-09-17T15:31:41.160Z,99514.72
2022-09-17T15:37:06.830Z,99528.50
2022-09-17T15:42:06.164Z,99517.75
2022-09-17T15:47:38.375Z,99521.09
2022-09-17T15:52:37.267Z,99507.00
2022-09-17T15:57:36.325Z,99496.00
2022-09-17T16:02:35.382Z,99494.75
2022-09-17T16:07:35.913Z,99496.84
2022-09-17T16:12:35.050Z,99500.75
2022-09-17T16:17:43.569Z,99484.84
2022-09-17T16:22:44.330Z,99461.59
2022-09-17T16:27:53.175Z,99456.00
2022-09-17T16:32:53.100Z,99467.00
2022-09-17T16:37:54.985Z,99475.91
2022-09-17T16:42:54.085Z,99472.38
2022-09-17T16:47:53.439Z,99457.44
2022-09-17T16:52:54.745Z,99467.81
2022-09-17T16:57:55.100Z,99454.72
2022-09-17T17:02:55.863Z,99460.56
2022-09-17T17:08:05.936Z,99474.47
2022-09-17T17:13:07.991Z,99471.34
2022-09-17T17:18:07.428Z,99468.03
2022-09-17T17:23:08.324Z,99453.09
2022-09-17T17:28:07.556Z,99473.81
2022-09-17T17:33:07.192Z,99433.81
2022-09-17T17:38:14.803Z,99414.97
2022-09-17T17:43:18.900Z,99380.75
2022-09-17T17:48:25.919Z,99385.09
2022-09-17T17:53:34.939Z,99393.19
2022-09-17T17:58:45.215Z,99402.09
2022-09-17T18:03:44.657Z,99417.88
2022-09-17T18:08:46.620Z,99415.38
2022-09-17T18:13:45.631Z,99422.63
2022-09-17T18:18:53.854Z,99448.13
2022-09-17T18:23:55.198Z,99463.44
2022-09-17T18:29:12.967Z,99456.16
2022-09-17T18:34:25.352Z,99459.66
2022-09-17T18:39:57.617Z,99447.03
2022-09-17T18:44:45.214Z,99463.78
2022-09-17T18:49:44.400Z,99458.13
2022-09-17T18:54:46.088Z,99460.94
2022-09-17T18:59:45.145Z,99466.19
2022-09-17T19:04:44.449Z,99470.47
2022-09-17T19:09:47.463Z,99460.03
2022-09-17T19:14:49.397Z,99450.78
2022-09-17T19:19:47.983Z,99440.25
2022-09-17T19:24:48.356Z,99416.75
2022-09-17T19:29:47.387Z,99404.78
2022-09-17T19:34:46.268Z,99392.13
2022-09-17T19:39:45.295Z,99369.06
2022-09-17T19:44:45.640Z,99349.28
2022-09-17T19:49:46.492Z,99330.16
2022-09-17T19:54:47.091Z,99331.22
2022-09-17T19:59:47.916Z,99317.16
2022-09-17T20:04:47.082Z,99326.28
2022-09-17T20:09:46.182Z,99313.09
2022-09-17T20:14:45.086Z,99319.69
2022-09-17T20:19:45.234Z,99296.56
2022-09-17T20:24:46.593Z,99292.44
2022-09-17T20:29:49.131Z,99303.16
2022-09-17T20:34:50.087Z,99323.78
2022-09-17T20:39:49.465Z,99313.47
2022-09-17T20:44:48.241Z,99319.16
2022-09-17T20:49:47.141Z,99320.44
2022-09-17T20:54:47.729Z,99309.13
2022-09-17T20:59:53.282Z,99306.97
2022-09-17T21:04:53.781Z,99318.28
2022-09-17T21:09:54.066Z,99322.41
2022-09-17T21:14:52.942Z,99306.34
2022-09-17T21:19:52.646Z,99295.41
2022-09-17T21:24:51.565Z,99279.28
2022-09-17T21:29:51.854Z,99282.09
2022-09-17T21:34:50.995Z,99255.50
2022-09-17T21:39:49.795Z,99259.81
2022-09-17T21:44:48.676Z,99270.97
2022-09-17T21:49:49.424Z,99269.09
2022-09-17T21:54:48.234Z,99265.31
2022-09-17T21:59:47.038Z,99255.78
2022-09-17T22:04:45.853Z,99251.00
2022-09-17T22:09:46.052Z,99254.34
2022-09-17T22:14:44.935Z,99250.00
2022-09-17T22:19:43.971Z,99251.88
2022-09-17T22:24:44.570Z,99236.72
2022-09-17T22:29:44.756Z,99243.69
2022-09-17T22:34:43.525Z,99236.16
2022-09-17T22:39:42.252Z,99229.16
2022-09-17T22:44:41.165Z,99230.34
2022-09-17T22:49:41.553Z,99231.81
2022-09-17T22:54:41.177Z,99224.41
2022-09-17T22:59:39.972Z,99214.69
2022-09-17T23:04:40.313Z,99209.16
2022-09-17T23:09:39.230Z,99211.91
2022-09-17T23:14:41.321Z,99217.34
2022-09-17T23:19:41.582Z,99216.69
2022-09-17T23:24:40.350Z,99208.59
2022-09-17T23:29:39.204Z,99206.53
2022-09-17T23:34:40.943Z,99209.75
2022-09-17T23:39:42.044Z,99213.06
2022-09-17T23:44:41.072Z,99212.53
2022-09-17T23:49:39.859Z,99213.50
2022-09-17T23:54:40.159Z,99215.59
2022-09-17T23:59:39.229Z,99229.88
